ADDS METAR Data INFO
IDs: Format: Raw Decoded Include TAF

Data at: 2305 UTC 21 Feb 2018

KBKD 212015Z AUTO 36006KT 10SM VCTS OVC005 A3028 RMK AO2 LTG DSNT NE THRU SE
KBKD 201515Z AUTO 20007KT 5SM HZ SCT014 BKN050 OVC120 20/18 A2987 RMK AO2 LTG DSNT NE THRU S T02040180
KBKD 201455Z AUTO 19011G18KT 5SM HZ BKN120 20/18 A2985 RMK AO2 LTG DSNT NE AND E T02030180
KBKD 201435Z AUTO 7SM BKN120 19/17 A2983 RMK AO2 LTG DSNT NE THRU SE T01910173
KBKD 201415Z AUTO 17010G20KT 7SM -TSRA SCT120 19/17 A2981 RMK AO2 LTG DSNT NE THRU S T01860171
KBKD 201355Z AUTO 16012G20KT 7SM VCTS SCT120 18/17 A2980 RMK AO2 LTG DSNT NE THRU S T01830170
KBKD 201335Z AUTO 7SM VCTS SCT032 SCT046 BKN110 19/17 A2982 RMK AO2 LTG DSNT NE THRU S T01850171
KBKD 201315Z AUTO 16013G18KT 10SM -RA SCT032 BKN110 18/17 A2981 RMK AO2 LTG DSNT ALQDS T01810166
KBKD 201255Z AUTO 17012G18KT 10SM -RA SCT120 18/16 A2981 RMK AO2 LTG DSNT S T01810160
KBKD 201235Z AUTO 16017G23KT 7SM SCT120 19/16 A2980 RMK AO2 LTG DSNT E T01850161
KBKD 201215Z AUTO 16018G29KT 10SM SCT120 18/15 A2979 RMK AO2 LTG DSNT E THRU S T01830150
KBKD 201155Z AUTO 16016G23KT 10SM -RA BKN110 19/14 A2980 RMK AO2 LTG DSNT S AND SW T01930141 10225 20193
KBKD 201135Z AUTO 17018G25KT 7SM CLR 21/14 A2980 RMK AO2 LTG DSNT SW T02050135
KBKD 201115Z AUTO 18019G27KT 7SM CLR 21/14 A2979 RMK AO2 LTG DSNT SW T02130138